createdAt,value
2022-08-29T00:00:28.112Z,16.1
2022-08-29T00:06:22.391Z,16
2022-08-29T00:12:13.583Z,16
2022-08-29T00:18:04.499Z,16
2022-08-29T00:23:58.056Z,15.5
2022-08-29T00:29:46.874Z,15.4
2022-08-29T00:35:38.915Z,15.5
2022-08-29T00:41:35.276Z,15.4
2022-08-29T00:47:28.408Z,15.6
2022-08-29T00:53:19.330Z,15.3
2022-08-29T00:59:12.353Z,15.4
2022-08-29T01:05:03.844Z,14.8
2022-08-29T01:10:55.272Z,15
2022-08-29T01:16:47.574Z,15.1
2022-08-29T01:22:40.838Z,15
2022-08-29T01:28:32.571Z,15.2
2022-08-29T01:34:23.985Z,15.2
2022-08-29T01:40:15.069Z,15.2
2022-08-29T01:46:08.194Z,14.7
2022-08-29T01:51:58.697Z,14.7
2022-08-29T01:57:51.971Z,14.7
2022-08-29T02:03:43.049Z,14.4
2022-08-29T02:09:33.939Z,14.6
2022-08-29T02:15:32.958Z,15.1
2022-08-29T02:21:23.823Z,14.8
2022-08-29T02:27:15.144Z,14.6
2022-08-29T02:33:06.547Z,14.7
2022-08-29T02:38:57.765Z,14.6
2022-08-29T02:44:50.183Z,14.4
2022-08-29T02:50:41.887Z,14.4
2022-08-29T02:56:32.550Z,14.3
2022-08-29T03:02:23.991Z,14.3
2022-08-29T03:08:14.802Z,14.3
2022-08-29T03:14:04.564Z,14.2
2022-08-29T03:19:56.040Z,13.7
2022-08-29T03:25:46.808Z,14
2022-08-29T03:31:36.600Z,13.7
2022-08-29T03:37:29.060Z,13.9
2022-08-29T03:43:20.635Z,13.7
2022-08-29T03:49:11.595Z,13.6
2022-08-29T03:55:02.431Z,13.8
2022-08-29T04:00:52.952Z,13.7
2022-08-29T04:06:43.404Z,13.7
2022-08-29T04:12:34.549Z,13.8
2022-08-29T04:18:26.194Z,13.6
2022-08-29T04:24:16.968Z,13.4
2022-08-29T04:30:08.991Z,13.6
2022-08-29T04:36:02.242Z,13.7
2022-08-29T04:41:58.184Z,13.5
2022-08-29T04:47:51.759Z,13.6
2022-08-29T04:53:48.296Z,13.6
2022-08-29T04:59:40.554Z,13.7
2022-08-29T05:05:31.785Z,13.3
2022-08-29T05:11:23.232Z,13.4
2022-08-29T05:17:14.407Z,13.5
2022-08-29T05:23:05.903Z,13.8
2022-08-29T05:29:00.420Z,13.6
2022-08-29T05:34:55.958Z,13.7
2022-08-29T05:40:48.522Z,13.8
2022-08-29T05:46:40.128Z,14.2
2022-08-29T05:52:32.765Z,14.8
2022-08-29T05:58:26.237Z,14.6
2022-08-29T06:04:15.916Z,14.7
2022-08-29T06:10:08.021Z,14.9
2022-08-29T06:16:00.755Z,14.8
2022-08-29T06:21:52.767Z,15
2022-08-29T06:27:44.298Z,14.9
2022-08-29T06:33:34.029Z,15.3
2022-08-29T06:39:22.955Z,15.1
2022-08-29T06:45:11.748Z,15.3
2022-08-29T06:51:02.313Z,15.4
2022-08-29T06:56:51.301Z,15.7
2022-08-29T07:02:40.419Z,16
2022-08-29T07:08:40.980Z,15.8
2022-08-29T07:14:42.183Z,15.8
2022-08-29T07:20:35.889Z,15.9
2022-08-29T07:26:27.457Z,16
2022-08-29T07:32:16.709Z,16.3
2022-08-29T07:38:12.400Z,16.4
2022-08-29T07:44:01.320Z,16.1
2022-08-29T07:49:51.650Z,16
2022-08-29T07:55:42.300Z,16.2
2022-08-29T08:01:32.053Z,16.4
2022-08-29T08:07:21.076Z,16.4
2022-08-29T08:13:22.784Z,16.8
2022-08-29T08:19:11.883Z,16.9
2022-08-29T08:25:03.298Z,17
2022-08-29T08:30:51.424Z,17.2
2022-08-29T08:36:46.896Z,17.4
2022-08-29T08:42:39.495Z,17.6
2022-08-29T08:48:32.358Z,17.6
2022-08-29T08:54:22.336Z,18
2022-08-29T09:00:14.055Z,18.3
2022-08-29T09:06:04.738Z,18.4
2022-08-29T09:11:55.282Z,18.4
2022-08-29T09:17:45.361Z,18.4
2022-08-29T09:23:35.961Z,18.4
2022-08-29T09:29:29.677Z,18.7
2022-08-29T09:35:19.589Z,19
2022-08-29T09:41:09.648Z,19
2022-08-29T09:46:59.983Z,19
2022-08-29T09:52:50.727Z,19.3
2022-08-29T09:58:40.894Z,19.5
2022-08-29T10:04:32.810Z,19.7
2022-08-29T10:10:25.265Z,19.8
2022-08-29T10:16:17.610Z,20.1
2022-08-29T10:22:09.497Z,20.2
2022-08-29T10:28:01.164Z,20
2022-08-29T10:33:53.575Z,20.3
2022-08-29T10:39:46.536Z,20.3
2022-08-29T10:45:42.705Z,20.2
2022-08-29T10:51:33.890Z,20.4
2022-08-29T10:57:24.978Z,20.6
2022-08-29T11:03:17.019Z,20.9
2022-08-29T11:09:09.707Z,21.3
2022-08-29T11:15:00.842Z,21.2
2022-08-29T11:20:53.838Z,21.4
2022-08-29T11:26:46.701Z,21.3
2022-08-29T11:32:37.953Z,21.5
2022-08-29T11:38:29.045Z,21.7
2022-08-29T11:44:22.547Z,22.1
2022-08-29T11:50:13.617Z,22.1
2022-08-29T11:56:05.267Z,22.7
2022-08-29T12:01:58.770Z,22.4
2022-08-29T12:07:49.293Z,22.2
2022-08-29T12:13:42.103Z,22.5
2022-08-29T12:19:34.598Z,22.6
2022-08-29T12:25:24.686Z,22.6
2022-08-29T12:31:15.773Z,22.9
2022-08-29T12:37:09.097Z,23.3
2022-08-29T12:43:02.144Z,23.1
2022-08-29T12:48:57.434Z,23.1
2022-08-29T12:54:47.984Z,22.7
2022-08-29T13:00:45.556Z,23
2022-08-29T13:06:36.687Z,23.1
2022-08-29T13:12:28.034Z,23.6
2022-08-29T13:18:18.273Z,23.4
2022-08-29T13:24:08.929Z,23.5
2022-08-29T13:30:00.272Z,23.4
2022-08-29T13:35:51.382Z,23.4
2022-08-29T13:41:43.993Z,23.7
2022-08-29T13:47:34.712Z,24
2022-08-29T13:53:25.882Z,23.8
2022-08-29T13:59:16.973Z,24
2022-08-29T14:05:08.263Z,24.1
2022-08-29T14:10:59.464Z,24.1
2022-08-29T14:16:56.859Z,24
2022-08-29T14:22:48.314Z,24.1
2022-08-29T14:28:41.416Z,24.2
2022-08-29T14:34:36.442Z,24.1
2022-08-29T14:40:39.499Z,24.3
2022-08-29T14:46:33.956Z,24.1
2022-08-29T14:52:26.271Z,24.2
2022-08-29T14:58:20.126Z,24.3
2022-08-29T15:04:11.063Z,24.3
2022-08-29T15:10:20.440Z,24.1
2022-08-29T15:16:11.992Z,24
2022-08-29T15:22:04.139Z,24.6
2022-08-29T15:27:55.208Z,24.4
2022-08-29T15:33:47.838Z,24.6
2022-08-29T15:39:42.041Z,24.3
2022-08-29T15:45:36.869Z,24.5
2022-08-29T15:51:31.473Z,24.3
2022-08-29T15:57:23.672Z,24.5
2022-08-29T16:03:14.642Z,24.5
2022-08-29T16:09:09.168Z,24.3
2022-08-29T16:15:09.565Z,24.3
2022-08-29T16:21:00.852Z,24.1
2022-08-29T16:26:54.173Z,24.3
2022-08-29T16:32:44.984Z,24.5
2022-08-29T16:38:36.104Z,24.4
2022-08-29T16:44:27.587Z,24.4
2022-08-29T16:50:18.461Z,24.4
2022-08-29T16:56:10.151Z,24.4
2022-08-29T17:02:01.976Z,24.4
2022-08-29T17:07:53.695Z,24.2
2022-08-29T17:13:45.401Z,24.2
2022-08-29T17:19:37.074Z,24
2022-08-29T17:25:27.860Z,23.9
2022-08-29T17:31:19.157Z,23.8
2022-08-29T17:37:11.767Z,23.8
2022-08-29T17:43:02.678Z,23.7
2022-08-29T17:48:53.946Z,23.6
2022-08-29T17:54:50.334Z,23.6
2022-08-29T18:00:41.893Z,23.4
2022-08-29T18:06:33.333Z,23.4
2022-08-29T18:12:26.079Z,23.3
2022-08-29T18:18:17.241Z,23.2
2022-08-29T18:24:09.659Z,23
2022-08-29T18:31:12.684Z,22.8
2022-08-29T18:37:07.576Z,22.5
2022-08-29T18:43:00.656Z,22.5
2022-08-29T18:48:55.728Z,22.3
2022-08-29T18:54:50.337Z,22
2022-08-29T19:00:41.355Z,21.8
2022-08-29T19:06:34.069Z,21.5
2022-08-29T19:12:26.593Z,21.5
2022-08-29T19:18:17.919Z,21.4
2022-08-29T19:24:08.528Z,21.1
2022-08-29T19:30:00.243Z,21
2022-08-29T19:35:55.973Z,20.8
2022-08-29T19:41:47.824Z,20.7
2022-08-29T19:47:41.614Z,20.4
2022-08-29T19:53:34.955Z,20.6
2022-08-29T19:59:28.577Z,20.4
2022-08-29T20:05:27.746Z,20.4
2022-08-29T20:11:20.377Z,20.3
2022-08-29T20:17:11.817Z,20.1
2022-08-29T20:23:03.850Z,20.1
2022-08-29T20:28:55.303Z,20
2022-08-29T20:34:48.483Z,20.1
2022-08-29T20:40:40.837Z,20.1
2022-08-29T20:46:31.827Z,19.8
2022-08-29T20:53:33.645Z,19.8
2022-08-29T20:59:26.417Z,20
2022-08-29T21:05:22.251Z,19.8
2022-08-29T21:11:18.036Z,19.8
2022-08-29T21:17:09.218Z,19.8
2022-08-29T21:23:01.784Z,19.8
2022-08-29T21:28:53.783Z,19.7
2022-08-29T21:35:50.933Z,19.8
2022-08-29T21:41:42.344Z,19.9
2022-08-29T21:47:35.504Z,19.7
2022-08-29T21:53:26.649Z,19.7
2022-08-29T21:59:26.218Z,19.8
2022-08-29T22:05:17.654Z,19.4
2022-08-29T22:11:10.636Z,19.5
2022-08-29T22:17:01.606Z,19.4
2022-08-29T22:22:52.543Z,19.4
2022-08-29T22:28:44.798Z,19.5
2022-08-29T22:34:36.920Z,19.4
2022-08-29T22:40:28.298Z,19.4
2022-08-29T22:46:19.804Z,19.3
2022-08-29T22:52:11.399Z,19.2
2022-08-29T22:58:03.450Z,18.9
2022-08-29T23:03:53.313Z,19.2
2022-08-29T23:09:42.823Z,19.2
2022-08-29T23:15:33.134Z,18.9
2022-08-29T23:21:27.428Z,19.1
2022-08-29T23:27:18.735Z,18.7
2022-08-29T23:33:10.162Z,18.7
2022-08-29T23:39:02.414Z,18.7
2022-08-29T23:44:55.003Z,18.8
2022-08-29T23:50:45.771Z,18.6
2022-08-29T23:56:39.616Z,18.6
